ADDS TAF Data INFO
IDs: Format: Raw Decoded Include METARs

Data at: 1506 UTC 29 May 2017

Region: TOP
KATL 291346Z 2914/3018 27007KT P6SM FEW080 BKN250
  FM291800 26010KT P6SM BKN050
  TEMPO 2919/2923 VRB10G18KT 4SM -TSRA BR BKN025CB
  FM300000 24006KT P6SM VCTS SCT050CB BKN120
  FM300400 26004KT P6SM BKN050
  FM300900 25005KT P6SM BKN015
  FM301500 27009KT P6SM OVC025


KBOS 291401Z 2914/3018 08012KT 1/2SM FG OVC003
  TEMPO 2914/2917 2SM BR
  FM291700 09014KT 2SM -RA BR OVC008
  FM292300 05010KT 2SM BR OVC008
  FM300900 06005KT P6SM BKN010


KBWI 291455Z 2915/3018 00000KT P6SM OVC003
  FM291600 VRB03KT P6SM BKN010
  FM291700 VRB03KT P6SM SCT025
  FM300000 13005KT P6SM SCT015
  FM300300 11005KT P6SM SCT008
  FM300600 11005KT 5SM BR BKN008
  FM301500 14006KT P6SM BKN015


KCLE 291454Z 2915/3018 24010KT P6SM FEW200
  FM292200 23012KT P6SM VCSH SCT035 BKN100
  FM300200 21010KT P6SM BKN150
  FM300900 23006KT P6SM BKN200
  FM301000 22006KT P6SM SCT200
  FM301500 25011KT P6SM SCT120


KCLT 291446Z 2915/3012 26004KT P6SM SCT250
  FM291700 24005KT P6SM SCT060
  FM291900 24005KT P6SM VCSH BKN060
  TEMPO 2922/3002 VRB20G30KT 4SM TSRA BR BKN035CB
  FM300600 17004KT P6SM SCT040 OVC090


KCVG 291459Z 2915/3018 24012KT P6SM SCT250
  FM300100 22006KT P6SM BKN200
  FM301500 26008KT P6SM SCT250


KDCA 291455Z 2915/3012 VRB03KT P6SM SCT008 BKN035
  TEMPO 2915/2916 OVC010
  FM291700 27004KT P6SM SCT035
  FM300200 09005KT P6SM SCT025
  FM300500 11005KT P6SM BKN008
  FM300900 09005KT 4SM BR BKN008


KDEN 291503Z 2915/3018 25004KT P6SM FEW080 SCT110
  FM291700 10008KT P6SM FEW080 SCT110
  FM292000 05009KT P6SM SCT070 BKN110
  TEMPO 2921/2924 VRB15G30KT -TSRA BKN050CB
  FM300000 10009KT P6SM VCSH SCT070 BKN110
  FM300300 16007KT P6SM FEW080 BKN140
  FM300600 20007KT P6SM SCT140
  FM301600 33005KT P6SM FEW080


KDFW 291123Z 2912/3018 36006KT P6SM BKN300
  FM291500 05007KT P6SM FEW080 BKN300
  FM300200 12006KT P6SM SCT300


KDTW 291120Z 2912/3018 23008KT P6SM FEW070
  FM291600 22015G24KT P6SM BKN060
  PROB30 2921/2924 5SM -SHRA SCT030 OVC060
  FM300000 24010KT P6SM SCT070
  FM300600 26006KT P6SM SCT080


KEWR 291439Z 2915/3018 07008KT P6SM -RA OVC015
  TEMPO 2915/2916 3SM -SHRA BR
  FM291800 08006KT 5SM -DZ BR OVC015
  FM292000 11006KT 5SM -DZ BR OVC015
  FM300400 11004KT 5SM BR OVC009
  FM300600 13004KT 5SM BR OVC007
  FM301400 13005KT 5SM BR OVC015


KFLL 291502Z 2915/3012 07008KT P6SM FEW025
  FM291600 12010KT P6SM FEW040
  FM300000 14007KT P6SM FEW030
  FM300400 VRB05KT P6SM FEW250


KIAD 291455Z 2915/3018 28005KT P6SM SCT015
  TEMPO 2915/2916 BKN015
  FM291700 28007KT P6SM SCT045
  FM292300 VRB03KT P6SM SCT045
  FM300500 12004KT P6SM SCT010
  FM300600 10004KT 3SM BR BKN008
  FM301300 13004KT 4SM BR BKN015
  FM301500 17005KT P6SM BKN035


KIAH 291459Z 2915/3018 02004KT P6SM FEW006 BKN035
  FM291700 VRB03KT P6SM VCSH BKN035
  FM291900 VRB06KT P6SM VCTS SCT025 BKN035CB
  FM300200 09005KT P6SM VCSH BKN025 OVC250
  FM301400 08007KT P6SM BKN020


KJFK 291437Z 2915/3018 07010KT 6SM -RA FEW008 OVC015
  TEMPO 2915/2916 3SM -SHRA BR
  FM291700 07009KT 5SM -DZ BR OVC015
  FM292300 08006KT 5SM BR OVC015
  FM300500 11005KT 5SM BR OVC009
  FM300700 12005KT 5SM BR OVC006
  FM301400 13005KT 5SM BR OVC015
  FM301600 14007KT 5SM BR BKN025


KLAS 291450Z 2915/3012 04006G15KT P6SM SKC
  FM292100 08006KT P6SM SKC
  FM292300 VRB05KT P6SM SKC
  FM300400 24006KT P6SM SCT250


KLAX 291456Z 2915/3018 26006KT 5SM BR OVC012
  FM292000 27014KT P6SM SCT020
  FM300300 26007KT P6SM SCT010
  FM300900 VRB03KT 4SM BR BKN015
  FM301730 26006KT P6SM SCT020


KLGA 291438Z 2915/3012 07010KT 6SM -RA OVC015
  TEMPO 2915/2916 3SM -SHRA BR
  FM291800 07010KT 5SM -DZ BR OVC015
  FM292300 11007KT 5SM BR OVC015
  FM300500 11005KT 5SM BR OVC009
  FM300700 11005KT 5SM BR OVC006


KMCO 291137Z 2912/3012 32005KT P6SM SCT020
  TEMPO 2912/2913 BKN020
  FM291800 28005KT P6SM SCT050
  FM292200 12008KT P6SM SCT060
  FM300200 VRB04KT P6SM FEW060 SCT250


KMDW 291503Z 2915/3012 26014G22KT P6SM SCT080
  FM291800 27016G27KT P6SM SCT060
  FM300000 27008KT P6SM FEW060


KMEM 291500Z 2915/3012 30005KT P6SM SCT050 BKN250
  FM292100 28004KT P6SM SCT050 BKN250
  FM300000 VRB03KT P6SM SCT250


KMIA 291502Z 2915/3012 VRB05KT P6SM FEW030
  FM291700 13010KT P6SM FEW035 SCT060
  FM300000 12006KT P6SM FEW030
  FM300300 VRB03KT P6SM FEW250


KMSP 291456Z 2915/3018 29012G22KT P6SM VCSH BKN025
  FM291800 29015G24KT P6SM VCSH BKN040
  FM300100 27008KT P6SM SCT040 BKN100
  FM301300 29012G20KT P6SM BKN025
  FM301600 29014G22KT P6SM BKN035


KORD 291503Z 2915/3018 26014G22KT P6SM SCT080
  FM291800 27016G27KT P6SM SCT060
  FM300000 27008KT P6SM FEW060
  FM301500 25012G18KT P6SM SCT045


KPDX 291453Z 2915/3012 33004KT P6SM OVC009
  FM292000 31006KT P6SM SCT050


KPHL 291122Z 2912/3018 07008KT P6SM -SHRA OVC009
  FM292000 08006KT P6SM BKN015
  FM300200 10005KT 4SM BR BKN008
  FM300600 11004KT 2SM -DZ BR BKN003
  FM301500 13006KT P6SM BKN008


KPHX 291455Z 2915/3012 13007KT P6SM SCT250
  FM292200 28007KT P6SM BKN250
  FM300900 11008KT P6SM BKN250


KPIT 291458Z 2915/3018 26012KT P6SM SCT020
  FM300300 21005KT P6SM SCT250
  FM300900 22008KT P6SM BKN060


KSAN 291427Z 2914/3018 VRB04KT P6SM OVC009
  FM291700 26007KT P6SM BKN011
  FM292000 27009KT P6SM SCT012 SCT200
  FM300200 VRB04KT P6SM OVC010


KSEA 291421Z 2914/3018 21005KT P6SM OVC004
  TEMPO 2914/2916 5SM BR OVC002
  FM291800 23009KT P6SM BKN011
  FM291900 26006KT P6SM FEW090 SCT250
  FM300600 22008KT P6SM FEW017 BKN090 BKN250
  FM300900 19009KT P6SM OVC010


KSFO 291502Z 2915/3018 27014KT P6SM OVC006
  FM291900 27016G23KT P6SM FEW006 SCT010
  FM292200 28022G27KT P6SM SCT015
  FM300300 27017KT P6SM BKN012
  FM300600 27014KT P6SM OVC012


KSLC 291449Z 2915/3018 15003KT P6SM SKC
  FM291700 33008KT P6SM SKC
  FM300400 15005KT P6SM SKC


KSTL 291505Z 2915/3018 23007KT P6SM SCT250
  FM291800 27009G18KT P6SM FEW040 BKN100
  FM300100 31006KT P6SM SCT080
  FM300600 VRB04KT P6SM SCT080


KTPA 291500Z 2915/3012 29005KT P6SM SCT025 BKN040
  FM291700 27009KT P6SM SCT035 SCT250
  FM300200 VRB03KT P6SM FEW040



Page loaded:  15:06 UTC  |   08:06 AM Pacific  |   09:06 AM Mountain  |   10:06 AM Central  |   11:06 AM Eastern

 

ADVISORIES

FORECASTS

FORECASTS

OBSERVATIONS

USER TOOLS

ABOUT US